Time;durP1;ratioP1;P1;durP2;ratioP2;P2;SDS_P1;SDS_P2;PMS_P1;PMS_P2;Temp;Humidity;BMP_temperature;BMP_pressure;BME280_temperature;BME280_humidity;BME280_pressure;Samples;Min_cycle;Max_cycle;Signal;HPM_P1;HPM_P2
2022/04/03 00:00:16;;;;;;;2.75;1.75;;;;;;;7.39;61.44;94095.19;5007768;28;20026;-60
2022/04/03 00:02:41;;;;;;;3.38;2.03;;;;;;;7.48;60.25;94098.00;5007354;28;20409;-60
2022/04/03 00:05:08;;;;;;;3.83;2.30;;;;;;;7.70;60.31;94099.13;5007665;28;20097;-60
2022/04/03 00:07:34;;;;;;;3.85;2.20;;;;;;;7.75;60.50;94101.41;5007386;28;20034;-60
2022/04/03 00:10:00;;;;;;;5.45;2.20;;;;;;;7.79;58.72;94098.53;5007591;28;20377;-60
2022/04/03 00:12:26;;;;;;;4.32;2.05;;;;;;;7.89;59.55;94099.56;5007461;28;20120;-61
2022/04/03 00:14:51;;;;;;;3.53;2.00;;;;;;;7.81;58.83;94085.59;5007112;28;20105;-60
2022/04/03 00:17:17;;;;;;;4.22;2.47;;;;;;;7.94;58.73;94094.13;5007576;28;20100;-60
2022/04/03 00:19:43;;;;;;;5.25;2.33;;;;;;;7.69;58.93;94062.41;5007498;28;20066;-61
2022/04/03 00:22:11;;;;;;;4.68;2.20;;;;;;;7.83;58.99;94099.16;5007232;28;20419;-63
2022/04/03 00:24:36;;;;;;;3.92;2.13;;;;;;;7.76;58.14;94093.59;5007235;28;20042;-58
2022/04/03 00:27:02;;;;;;;2.97;1.80;;;;;;;7.75;57.95;94094.50;5006728;28;20129;-64
2022/04/03 00:29:28;;;;;;;4.97;2.65;;;;;;;7.67;59.31;94094.19;5007370;28;20049;-62
2022/04/03 00:31:53;;;;;;;4.07;2.03;;;;;;;7.57;59.66;94075.22;5007432;28;20477;-65
2022/04/03 00:34:19;;;;;;;3.25;2.00;;;;;;;7.66;59.45;94088.25;5007421;28;20037;-61
2022/04/03 00:36:44;;;;;;;3.85;1.90;;;;;;;7.70;60.38;94083.75;5006772;28;20030;-63
2022/04/03 00:39:10;;;;;;;2.88;1.70;;;;;;;7.48;61.53;94080.03;5007246;28;20184;-61
2022/04/03 00:41:38;;;;;;;8.15;2.72;;;;;;;7.33;62.70;94056.22;5010871;28;20034;-60
2022/04/03 00:44:03;;;;;;;4.57;2.60;;;;;;;6.93;63.96;94002.41;5011009;28;20046;-60
2022/04/03 00:46:33;;;;;;;5.78;3.38;;;;;;;6.56;64.29;93947.59;5010823;28;20088;-59
2022/04/03 00:48:59;;;;;;;4.32;2.92;;;;;;;7.30;64.73;94081.25;5010360;28;20060;-64
2022/04/03 00:51:26;;;;;;;9.10;4.05;;;;;;;7.17;65.05;94053.81;5010858;28;20410;-59
2022/04/03 00:53:51;;;;;;;8.18;3.92;;;;;;;7.22;64.12;94076.59;5009517;28;20028;-59
2022/04/03 00:56:17;;;;;;;4.68;3.42;;;;;;;7.12;65.29;94073.81;5010962;28;20545;-59
2022/04/03 00:58:42;;;;;;;7.75;4.47;;;;;;;7.10;65.34;94080.78;5010597;28;20482;-60
2022/04/03 01:01:07;;;;;;;5.68;3.45;;;;;;;6.90;64.72;94053.03;5010445;28;20034;-62
2022/04/03 01:03:33;;;;;;;5.32;3.50;;;;;;;6.93;65.37;94060.53;5010558;28;20497;-59
2022/04/03 01:05:59;;;;;;;6.03;2.85;;;;;;;6.99;65.21;94067.84;5010279;28;20034;-60
2022/04/03 01:08:25;;;;;;;4.53;2.45;;;;;;;7.28;62.49;94103.56;5010260;28;20026;-61
2022/04/03 01:10:51;;;;;;;5.00;2.63;;;;;;;6.94;58.17;94064.75;5010344;28;20383;-60
2022/04/03 01:13:16;;;;;;;4.88;2.08;;;;;;;7.16;58.38;94093.19;5010241;28;20022;-61
2022/04/03 01:15:42;;;;;;;4.70;2.00;;;;;;;7.07;56.86;94104.06;5010060;28;20102;-59
2022/04/03 01:18:08;;;;;;;4.15;1.92;;;;;;;6.97;56.47;94090.19;5010534;28;20071;-59
2022/04/03 01:20:35;;;;;;;4.82;2.28;;;;;;;6.97;58.55;94105.56;5008931;28;20034;-59
2022/04/03 01:23:01;;;;;;;4.97;2.40;;;;;;;6.64;58.22;94045.28;5010026;28;20041;-59
2022/04/03 01:25:26;;;;;;;4.65;2.20;;;;;;;6.75;57.76;94065.91;5010041;28;20026;-61
2022/04/03 01:27:52;;;;;;;3.83;2.10;;;;;;;6.93;56.78;94088.72;5010094;28;20034;-61
2022/04/03 01:30:17;;;;;;;4.57;2.22;;;;;;;6.94;56.97;94083.50;5010116;28;20613;-59
2022/04/03 01:32:43;;;;;;;3.83;2.20;;;;;;;6.97;56.85;94101.25;5010311;28;20033;-60
2022/04/03 01:35:08;;;;;;;3.75;2.20;;;;;;;6.73;58.13;94067.75;5010264;28;20135;-62
2022/04/03 01:37:34;;;;;;;7.63;2.78;;;;;;;6.55;58.40;94030.47;5008262;28;20021;-59
2022/04/03 01:39:59;;;;;;;5.63;2.35;;;;;;;5.93;57.87;93952.34;5010037;28;20026;-58
2022/04/03 01:42:25;;;;;;;5.05;2.38;;;;;;;6.89;58.86;94118.03;5008556;28;21136;-61
2022/04/03 01:44:50;;;;;;;4.18;2.22;;;;;;;6.86;59.10;94128.47;5009793;28;20041;-60
2022/04/03 01:47:16;;;;;;;5.85;2.55;;;;;;;6.89;57.97;94112.91;5009646;28;20060;-59
2022/04/03 01:49:41;;;;;;;6.07;2.90;;;;;;;6.84;59.46;94115.75;5009651;28;20041;-59
2022/04/03 01:52:09;;;;;;;3.78;1.90;;;;;;;6.81;58.65;94095.44;5009629;28;20343;-59
2022/04/03 01:54:34;;;;;;;6.10;2.28;;;;;;;6.81;58.05;94098.81;5009782;28;20052;-60
2022/04/03 01:57:00;;;;;;;4.85;2.72;;;;;;;6.77;57.75;94094.81;5009511;28;20034;-61
2022/04/03 01:59:25;;;;;;;4.20;1.75;;;;;;;6.67;58.66;94088.63;5009934;28;20030;-62
2022/04/03 02:01:50;;;;;;;4.10;2.40;;;;;;;6.60;59.89;94095.06;5009305;28;20041;-62
2022/04/03 02:04:16;;;;;;;7.18;2.10;;;;;;;6.58;59.32;94089.22;5009679;28;20022;-61
2022/04/03 02:06:41;;;;;;;4.38;2.17;;;;;;;6.48;59.40;94099.19;5009209;28;20092;-60
2022/04/03 02:09:08;;;;;;;4.93;2.25;;;;;;;6.37;61.15;94102.41;5009478;28;20209;-61
2022/04/03 02:11:35;;;;;;;6.20;2.00;;;;;;;6.39;60.13;94095.44;5009205;28;20556;-60
2022/04/03 02:14:00;;;;;;;5.78;2.13;;;;;;;6.33;61.59;94100.13;5009061;28;20049;-60
2022/04/03 02:16:26;;;;;;;4.50;2.00;;;;;;;6.17;61.75;94069.53;5009260;28;20069;-61
2022/04/03 02:18:51;;;;;;;5.30;2.40;;;;;;;6.21;61.68;94096.56;5009507;28;20121;-61
2022/04/03 02:21:17;;;;;;;4.82;2.22;;;;;;;6.07;62.37;94071.81;5009222;28;20092;-64
2022/04/03 02:23:43;;;;;;;4.93;2.10;;;;;;;5.92;62.03;94047.09;5008853;28;20026;-63
2022/04/03 02:26:08;;;;;;;6.40;2.30;;;;;;;6.07;62.87;94087.19;5007481;28;20040;-64
2022/04/03 02:28:34;;;;;;;3.95;2.30;;;;;;;5.99;62.31;94079.97;5008930;28;20130;-60
2022/04/03 02:30:59;;;;;;;5.35;2.08;;;;;;;6.00;62.24;94067.97;5007998;28;20580;-60
2022/04/03 02:33:24;;;;;;;4.95;2.47;;;;;;;5.94;62.79;94079.38;5009244;28;20045;-59
2022/04/03 02:35:50;;;;;;;3.88;1.90;;;;;;;5.93;62.60;94072.59;5009123;28;20041;-59
2022/04/03 02:38:16;;;;;;;6.53;2.28;;;;;;;5.85;61.77;94079.91;5008363;28;20447;-59
2022/04/03 02:40:43;;;;;;;4.55;2.20;;;;;;;5.84;62.56;94086.78;5008913;28;20034;-62
2022/04/03 02:43:10;;;;;;;4.45;2.00;;;;;;;5.66;63.37;94070.78;5008661;28;20033;-59
2022/04/03 02:45:35;;;;;;;6.43;2.30;;;;;;;5.97;63.07;94103.97;5008461;28;20025;-61
2022/04/03 02:48:01;;;;;;;5.95;2.10;;;;;;;6.01;62.86;94101.16;5008762;28;20131;-63
2022/04/03 02:50:26;;;;;;;6.55;2.38;;;;;;;6.07;62.72;94100.78;5008314;28;20060;-60
2022/04/03 02:52:54;;;;;;;5.13;2.00;;;;;;;5.10;63.36;93952.22;5008972;28;20022;-60
2022/04/03 02:55:21;;;;;;;5.20;2.00;;;;;;;6.13;62.70;94107.25;5008563;28;20557;-61
2022/04/03 02:57:47;;;;;;;4.78;2.15;;;;;;;6.11;63.18;94113.41;5008573;28;20128;-59
2022/04/03 03:00:14;;;;;;;3.85;2.20;;;;;;;5.81;63.18;94055.44;5008806;28;20573;-59
2022/04/03 03:02:47;;;;;;;5.80;2.80;;;;;;;6.22;63.47;94100.78;5007649;28;20121;-61
2022/04/03 03:05:14;;;;;;;4.47;2.38;;;;;;;6.13;63.35;94085.97;5008371;28;20022;-59
2022/04/03 03:07:41;;;;;;;5.38;2.30;;;;;;;6.30;63.22;94096.03;5008523;28;20052;-58
2022/04/03 03:10:18;;;;;;;6.60;2.38;;;;;;;6.37;63.35;94107.53;5008704;28;20030;-62
2022/04/03 03:12:44;;;;;;;4.28;2.30;;;;;;;6.18;62.96;94066.88;5008125;28;20045;-61
2022/04/03 03:15:11;;;;;;;5.63;2.10;;;;;;;5.96;62.48;94035.78;5007974;28;20171;-63
2022/04/03 03:17:37;;;;;;;3.17;1.90;;;;;;;6.23;62.55;94075.09;5008319;28;20026;-62
2022/04/03 03:20:05;;;;;;;5.82;2.30;;;;;;;6.36;63.35;94107.63;5007176;28;20410;-63
2022/04/03 03:22:31;;;;;;;6.97;2.80;;;;;;;6.29;63.25;94093.56;5008315;28;20033;-60
2022/04/03 03:24:57;;;;;;;4.78;2.85;;;;;;;6.18;63.31;94083.97;5008335;28;20030;-60
2022/04/03 03:27:22;;;;;;;4.60;2.50;;;;;;;6.17;62.76;94085.69;5007847;28;20156;-63
2022/04/03 03:29:47;;;;;;;3.67;1.90;;;;;;;6.15;61.19;94066.22;5008207;28;20033;-60
2022/04/03 03:32:13;;;;;;;2.83;1.80;;;;;;;6.35;60.85;94077.81;5008415;28;20030;-59
2022/04/03 03:34:39;;;;;;;4.15;1.73;;;;;;;6.65;59.88;94108.38;5007285;28;20483;-61
2022/04/03 03:37:04;;;;;;;4.47;2.05;;;;;;;6.59;61.66;94121.56;5007546;28;20117;-60
2022/04/03 03:39:30;;;;;;;3.50;1.80;;;;;;;6.43;61.39;94111.47;5007737;28;20446;-61
2022/04/03 03:41:55;;;;;;;5.50;2.50;;;;;;;6.46;62.34;94129.22;5007889;28;20026;-61
2022/04/03 03:44:23;;;;;;;3.45;2.00;;;;;;;6.28;62.62;94130.31;5008258;28;20034;-61
2022/04/03 03:46:49;;;;;;;4.95;2.33;;;;;;;6.27;62.61;94137.19;5007578;28;20050;-61
2022/04/03 03:49:15;;;;;;;4.90;2.38;;;;;;;6.23;63.03;94135.69;5007562;28;20474;-63
2022/04/03 03:51:40;;;;;;;5.32;2.58;;;;;;;6.09;63.24;94117.81;5007964;28;20543;-62
2022/04/03 03:54:06;;;;;;;5.50;2.42;;;;;;;6.13;63.43;94134.59;5007884;28;20030;-60
2022/04/03 03:56:32;;;;;;;5.60;2.50;;;;;;;5.93;63.94;94115.28;5007788;28;20050;-59
2022/04/03 03:58:58;;;;;;;6.45;2.75;;;;;;;5.93;62.99;94118.66;5007989;28;20041;-65
2022/04/03 04:01:24;;;;;;;4.93;2.60;;;;;;;6.04;63.70;94154.72;5007429;28;20030;-61
2022/04/03 04:03:49;;;;;;;7.95;2.50;;;;;;;6.12;64.12;94148.34;5008177;28;20074;-61
2022/04/03 04:06:15;;;;;;;4.28;2.30;;;;;;;6.05;63.74;94150.41;5008122;28;20018;-60
2022/04/03 04:08:41;;;;;;;8.68;2.83;;;;;;;6.09;63.67;94169.81;5007842;28;20029;-60
2022/04/03 04:11:07;;;;;;;5.97;2.70;;;;;;;6.10;63.87;94170.63;5008080;28;20026;-61
2022/04/03 04:13:33;;;;;;;6.95;2.75;;;;;;;5.82;63.20;94121.88;5008489;28;20060;-64
2022/04/03 04:15:58;;;;;;;3.30;1.90;;;;;;;6.07;62.94;94180.13;5011856;28;20026;-65
2022/04/03 04:18:24;;;;;;;6.35;2.50;;;;;;;5.93;63.66;94181.81;5011728;28;20100;-61
2022/04/03 04:20:52;;;;;;;4.95;2.55;;;;;;;5.50;64.11;94111.75;5011872;28;20026;-62
2022/04/03 04:23:19;;;;;;;5.43;2.80;;;;;;;5.92;63.62;94167.38;5011821;28;20025;-64
2022/04/03 04:25:44;;;;;;;6.10;2.50;;;;;;;6.12;62.94;94199.53;5011193;28;20702;-62
2022/04/03 04:28:11;;;;;;;4.75;2.60;;;;;;;6.22;63.53;94203.19;5011478;28;20068;-63
2022/04/03 04:30:37;;;;;;;6.82;4.00;;;;;;;6.20;63.12;94194.78;5011523;28;20030;-64
2022/04/03 04:33:02;;;;;;;6.00;2.92;;;;;;;6.33;63.19;94213.63;5011488;28;20029;-66
2022/04/03 04:35:28;;;;;;;5.85;2.88;;;;;;;6.30;62.89;94207.88;5011445;28;20169;-59
2022/04/03 04:37:54;;;;;;;4.82;2.45;;;;;;;6.22;62.92;94219.38;5011065;28;20084;-65
2022/04/03 04:40:19;;;;;;;5.65;2.88;;;;;;;6.19;63.25;94226.41;5011474;28;20025;-63
2022/04/03 04:42:44;;;;;;;4.68;2.50;;;;;;;6.18;62.71;94217.06;5011217;28;20068;-64
2022/04/03 04:45:10;;;;;;;3.17;2.17;;;;;;;6.23;61.86;94225.31;5003084;28;20034;-59
2022/04/03 04:47:37;;;;;;;6.15;2.88;;;;;;;6.21;63.07;94225.38;5001208;28;20057;-61
2022/04/03 04:50:11;;;;;;;3.83;2.22;;;;;;;6.20;61.82;94205.03;5000431;28;20026;-61
2022/04/03 04:52:38;;;;;;;4.50;2.10;;;;;;;6.39;61.34;94220.13;5004284;28;20030;-62
2022/04/03 04:55:05;;;;;;;2.20;1.70;;;;;;;6.50;61.23;94219.47;5011163;28;20117;-61
2022/04/03 04:57:36;;;;;;;4.28;2.22;;;;;;;6.57;60.85;94225.88;5010950;28;20065;-59
2022/04/03 05:00:05;;;;;;;3.53;1.83;;;;;;;6.56;60.28;94222.50;5010574;28;20018;-60
2022/04/03 05:02:31;;;;;;;3.20;1.65;;;;;;;6.69;60.18;94224.31;5009300;28;20041;-65
2022/04/03 05:04:56;;;;;;;3.35;1.85;;;;;;;6.86;60.04;94225.88;4993656;28;20084;-65
2022/04/03 05:07:22;;;;;;;3.83;2.00;;;;;;;6.62;59.62;94183.72;4987957;28;20066;-61
2022/04/03 05:09:49;;;;;;;4.75;2.35;;;;;;;6.92;59.49;94217.78;4989453;28;20042;-60
2022/04/03 05:12:15;;;;;;;4.10;2.30;;;;;;;6.35;59.69;94136.72;4995344;28;20053;-59
2022/04/03 05:14:41;;;;;;;3.75;2.13;;;;;;;7.05;59.23;94252.03;4992190;28;20100;-66
2022/04/03 05:17:07;;;;;;;5.30;2.85;;;;;;;6.97;59.68;94238.84;4997926;28;20483;-62
2022/04/03 05:19:33;;;;;;;3.55;1.85;;;;;;;6.92;58.64;94253.66;4998541;28;20072;-59
2022/04/03 05:21:59;;;;;;;5.45;2.10;;;;;;;6.83;59.33;94259.38;4988565;28;20089;-60
2022/04/03 05:24:25;;;;;;;4.93;2.38;;;;;;;6.72;60.04;94262.56;4987986;28;20560;-64
2022/04/03 05:26:50;;;;;;;5.85;2.53;;;;;;;6.63;59.85;94261.38;4993055;28;20112;-62
2022/04/03 05:29:16;;;;;;;3.33;2.08;;;;;;;6.34;59.69;94222.94;4994759;28;20038;-58
2022/04/03 05:31:43;;;;;;;3.22;2.13;;;;;;;6.68;59.94;94261.94;4987284;28;20036;-60
2022/04/03 05:34:08;;;;;;;3.00;2.03;;;;;;;6.83;59.37;94275.56;4987826;28;20041;-61
2022/04/03 05:36:35;;;;;;;3.95;2.00;;;;;;;6.96;58.11;94278.19;4987370;28;20034;-58
2022/04/03 05:39:04;;;;;;;4.50;2.05;;;;;;;6.85;57.97;94237.03;4986833;28;20022;-60
2022/04/03 05:41:30;;;;;;;5.28;2.13;;;;;;;7.05;57.81;94254.59;4992333;28;20441;-59
2022/04/03 05:43:55;;;;;;;4.47;2.45;;;;;;;6.22;57.00;94113.59;4986608;28;20026;-59
2022/04/03 05:46:21;;;;;;;5.75;2.40;;;;;;;7.25;57.03;94255.91;4987368;28;20127;-59
2022/04/03 05:48:46;;;;;;;3.90;1.60;;;;;;;7.40;55.99;94266.13;4986557;28;20034;-59
2022/04/03 05:51:12;;;;;;;5.13;2.00;;;;;;;7.60;54.77;94268.25;4987817;28;20101;-59
2022/04/03 05:53:38;;;;;;;2.58;1.60;;;;;;;7.69;52.72;94271.97;4986456;28;20042;-59
2022/04/03 05:56:04;;;;;;;3.90;1.77;;;;;;;7.82;52.66;94272.03;4986552;28;20038;-65
2022/04/03 05:58:29;;;;;;;3.28;1.40;;;;;;;7.78;51.80;94261.13;4988722;28;20609;-59
2022/04/03 06:00:55;;;;;;;2.33;1.23;;;;;;;7.93;51.32;94284.19;4986191;28;20688;-60
2022/04/03 06:03:20;;;;;;;4.70;1.58;;;;;;;7.99;51.48;94288.94;4986560;28;20486;-59
2022/04/03 06:05:47;;;;;;;2.17;1.27;;;;;;;7.97;51.28;94263.34;4986248;28;20084;-58
2022/04/03 06:08:13;;;;;;;3.13;1.52;;;;;;;7.72;51.45;94213.59;4986682;28;20034;-57
2022/04/03 06:10:38;;;;;;;2.33;1.33;;;;;;;8.05;49.52;94285.94;4986132;28;20026;-60
2022/04/03 06:13:06;;;;;;;4.13;1.63;;;;;;;8.14;49.52;94295.63;4986959;28;20026;-62
2022/04/03 06:15:36;;;;;;;4.35;1.40;;;;;;;8.25;48.63;94290.63;4988081;28;20030;-64
2022/04/03 06:18:04;;;;;;;3.20;1.30;;;;;;;8.13;48.33;94276.00;4998903;28;20042;-59
2022/04/03 06:20:30;;;;;;;3.58;1.60;;;;;;;7.95;48.94;94280.56;5006274;28;20018;-58
2022/04/03 06:22:55;;;;;;;5.47;1.50;;;;;;;8.11;48.84;94308.66;4995423;28;20036;-58
2022/04/03 06:25:21;;;;;;;2.50;1.40;;;;;;;7.82;49.21;94278.00;4992208;28;20022;-59
2022/04/03 06:27:47;;;;;;;2.80;1.52;;;;;;;7.96;49.05;94310.47;4997428;28;20107;-58
2022/04/03 06:30:13;;;;;;;2.72;1.33;;;;;;;8.00;48.58;94303.38;4987188;28;20066;-57
2022/04/03 06:32:39;;;;;;;1.63;1.02;;;;;;;7.85;48.03;94303.44;4995331;28;20052;-57
2022/04/03 06:35:06;;;;;;;2.50;1.42;;;;;;;8.15;49.08;94320.41;4987502;28;20304;-59
2022/04/03 06:37:32;;;;;;;3.72;1.38;;;;;;;8.10;49.05;94312.97;4990821;28;20769;-58
2022/04/03 06:39:58;;;;;;;1.63;0.95;;;;;;;8.18;48.91;94319.34;4991594;28;20038;-60
2022/04/03 06:42:23;;;;;;;1.27;1.10;;;;;;;8.38;48.84;94311.19;4989055;28;20022;-59
2022/04/03 06:44:49;;;;;;;4.90;1.45;;;;;;;8.50;48.45;94329.31;4993544;28;20061;-60
2022/04/03 06:47:14;;;;;;;1.08;0.90;;;;;;;8.35;48.32;94326.81;5001320;28;20058;-59
2022/04/03 06:49:40;;;;;;;4.30;1.45;;;;;;;8.19;48.22;94256.81;4994690;28;20560;-60
2022/04/03 06:52:08;;;;;;;2.40;1.42;;;;;;;8.52;48.61;94327.47;5002178;28;20104;-58
2022/04/03 06:54:35;;;;;;;2.20;1.30;;;;;;;8.86;47.44;94333.75;5004902;28;20073;-62
2022/04/03 06:57:00;;;;;;;1.05;0.90;;;;;;;8.69;46.70;94319.47;5006064;28;20026;-60
2022/04/03 06:59:29;;;;;;;2.00;1.23;;;;;;;8.86;47.50;94340.66;5005959;28;20038;-59
2022/04/03 07:01:55;;;;;;;3.13;1.17;;;;;;;8.45;48.06;94342.47;5006017;28;20041;-58
2022/04/03 07:04:21;;;;;;;1.38;0.98;;;;;;;8.22;49.15;94300.28;5005268;28;20026;-58
2022/04/03 07:06:46;;;;;;;1.10;0.80;;;;;;;8.61;48.13;94340.53;5006035;28;20079;-59
2022/04/03 07:09:12;;;;;;;2.08;1.20;;;;;;;8.77;48.22;94332.63;5006219;28;20044;-60
2022/04/03 07:11:37;;;;;;;3.28;1.48;;;;;;;8.87;47.79;94314.84;5005190;28;20038;-63
2022/04/03 07:14:03;;;;;;;3.63;2.33;;;;;;;9.09;47.28;94337.34;4987134;28;20121;-59
2022/04/03 07:16:29;;;;;;;1.98;1.45;;;;;;;8.94;46.36;94325.53;4985681;28;20062;-59
2022/04/03 07:18:54;;;;;;;4.50;1.70;;;;;;;8.53;48.18;94344.53;4984564;28;20034;-60
2022/04/03 07:21:20;;;;;;;2.28;1.50;;;;;;;9.19;47.23;94360.69;4986733;28;20046;-63
2022/04/03 07:23:45;;;;;;;3.05;1.52;;;;;;;9.47;46.88;94375.06;4985170;28;20477;-59
2022/04/03 07:26:11;;;;;;;4.10;1.88;;;;;;;7.82;50.55;94338.75;4986232;28;20556;-59
2022/04/03 07:28:37;;;;;;;3.05;1.15;;;;;;;8.45;50.23;94360.47;4986064;28;20405;-60
2022/04/03 07:31:03;;;;;;;2.60;1.55;;;;;;;9.12;49.01;94385.19;4996657;28;20037;-58
2022/04/03 07:33:28;;;;;;;3.42;1.70;;;;;;;9.59;48.43;94391.41;4985865;28;20473;-59
2022/04/03 07:35:54;;;;;;;2.55;1.40;;;;;;;9.94;46.82;94388.13;4993015;28;20064;-57
2022/04/03 07:38:19;;;;;;;3.08;1.30;;;;;;;10.02;46.58;94391.00;4988833;28;20077;-58
2022/04/03 07:40:46;;;;;;;2.67;1.20;;;;;;;9.59;45.70;94363.09;4985143;28;20033;-60
2022/04/03 07:43:12;;;;;;;4.63;1.70;;;;;;;10.30;44.41;94368.41;4985002;28;20030;-58
2022/04/03 07:45:38;;;;;;;4.78;1.98;;;;;;;10.56;43.44;94365.72;4985161;28;20038;-59
2022/04/03 07:48:03;;;;;;;3.25;1.50;;;;;;;10.80;42.90;94383.72;4984338;28;20398;-56
2022/04/03 07:50:29;;;;;;;6.68;1.92;;;;;;;10.85;42.48;94366.97;4984672;28;20062;-58
2022/04/03 07:52:54;;;;;;;8.15;2.15;;;;;;;11.33;41.88;94396.94;4989534;28;20561;-58
2022/04/03 07:55:20;;;;;;;1.58;1.00;;;;;;;10.53;44.24;94404.63;4985173;28;20607;-59
2022/04/03 07:57:45;;;;;;;1.40;1.10;;;;;;;9.97;44.67;94418.00;4995270;28;20026;-59
2022/04/03 08:00:13;;;;;;;1.55;0.90;;;;;;;9.45;45.51;94412.97;4985526;28;20034;-59
2022/04/03 08:02:39;;;;;;;2.17;1.30;;;;;;;8.86;47.45;94380.03;4989880;28;20532;-58
2022/04/03 08:05:06;;;;;;;2.05;1.42;;;;;;;9.55;46.33;94408.81;4986164;28;20022;-59
2022/04/03 08:07:35;;;;;;;2.17;1.20;;;;;;;9.48;46.24;94407.59;4993511;28;20034;-59
2022/04/03 08:10:00;;;;;;;3.25;1.50;;;;;;;9.54;46.42;94383.19;4988147;28;20038;-60
2022/04/03 08:12:26;;;;;;;3.53;1.45;;;;;;;9.25;46.44;94350.00;4987083;28;20622;-60
2022/04/03 08:14:52;;;;;;;2.80;1.58;;;;;;;9.67;45.48;94385.72;4984147;28;20040;-57
2022/04/03 08:17:18;;;;;;;4.60;1.80;;;;;;;9.79;44.52;94360.88;4985503;28;20035;-59
2022/04/03 08:19:43;;;;;;;3.05;1.60;;;;;;;10.50;43.28;94405.66;4987434;28;20046;-63
2022/04/03 08:22:08;;;;;;;1.52;0.68;;;;;;;10.50;41.97;94403.06;4984052;28;20469;-58
2022/04/03 08:24:35;;;;;;;2.63;1.55;;;;;;;10.57;41.96;94383.66;4984796;28;20034;-60
2022/04/03 08:27:00;;;;;;;5.18;1.40;;;;;;;11.12;40.70;94389.06;4985112;28;20034;-59
2022/04/03 08:29:26;;;;;;;5.50;1.35;;;;;;;11.40;39.11;94377.47;4986842;28;20506;-60
2022/04/03 08:31:51;;;;;;;3.03;1.02;;;;;;;10.95;39.59;94392.06;4984863;28;20036;-59
2022/04/03 08:34:17;;;;;;;3.83;1.80;;;;;;;10.88;40.07;94414.09;4985916;28;20422;-62
2022/04/03 08:36:43;;;;;;;5.55;1.85;;;;;;;11.37;39.10;94351.88;4984844;28;20409;-60
2022/04/03 08:39:09;;;;;;;3.33;1.45;;;;;;;11.89;37.88;94410.78;4988191;28;20204;-59
2022/04/03 08:41:35;;;;;;;4.15;1.50;;;;;;;10.91;38.30;94318.44;4984728;28;20132;-61
2022/04/03 08:44:01;;;;;;;3.15;1.20;;;;;;;11.69;38.77;94422.63;4985816;28;20022;-60
2022/04/03 08:46:32;;;;;;;2.40;0.85;;;;;;;11.06;38.15;94405.00;4998070;28;20502;-60
2022/04/03 08:48:59;;;;;;;;;;;;;;;11.04;39.10;94427.50;4999302;28;20057;-61
2022/04/03 08:51:27;;;;;;;4.97;1.88;;;;;;;10.25;40.91;94385.97;4984655;28;20435;-60
2022/04/03 08:53:53;;;;;;;2.72;1.23;;;;;;;10.51;42.14;94411.63;4987607;28;20045;-62
2022/04/03 08:56:19;;;;;;;4.20;1.42;;;;;;;9.92;43.67;94380.53;4993432;28;20034;-60
2022/04/03 08:58:44;;;;;;;1.52;0.95;;;;;;;9.18;41.88;94310.16;4985809;28;20582;-61
2022/04/03 09:01:11;;;;;;;0.73;0.63;;;;;;;9.61;41.50;94347.53;4996242;28;20383;-61
2022/04/03 09:03:37;;;;;;;2.17;1.33;;;;;;;11.00;38.35;94349.53;4988836;28;20030;-58
2022/04/03 09:06:17;;;;;;;4.22;1.42;;;;;;;11.49;37.50;94430.16;4999045;28;20060;-59
2022/04/03 09:08:43;;;;;;;2.45;1.55;;;;;;;11.66;37.45;94415.13;4988248;28;20030;-61
2022/04/03 09:11:09;;;;;;;4.53;1.52;;;;;;;11.49;37.40;94419.00;4999019;28;20053;-68
2022/04/03 09:13:37;;;;;;;2.72;1.70;;;;;;;13.37;34.48;94417.88;4987766;28;20033;-66
2022/04/03 09:16:04;;;;;;;2.08;1.25;;;;;;;15.17;29.61;94426.59;4996158;28;20033;-61
2022/04/03 09:18:51;;;;;;;1.90;1.33;;;;;;;17.11;28.12;94415.34;4990269;28;20141;-60
2022/04/03 09:21:22;;;;;;;3.35;1.80;;;;;;;18.83;25.18;94418.75;4992202;28;20077;-60
2022/04/03 09:24:08;;;;;;;;;;;;;;;17.53;27.56;94431.13;5005819;28;20119;-59
2022/04/03 09:26:35;;;;;;;5.13;2.55;;;;;;;16.66;31.24;94422.25;5000542;28;19921;-63
2022/04/03 09:29:11;;;;;;;6.00;2.90;;;;;;;14.37;35.78;94418.09;4990106;28;20034;-59
2022/04/03 09:31:37;;;;;;;5.05;2.60;;;;;;;12.60;40.24;94346.53;4994474;28;20029;-59
2022/04/03 09:34:04;;;;;;;6.40;2.90;;;;;;;12.05;43.95;94464.69;4992030;28;20323;-63
2022/04/03 09:36:33;;;;;;;6.32;3.25;;;;;;;11.16;49.63;94483.34;4991334;28;20407;-60
2022/04/03 09:39:18;;;;;;;6.40;3.20;;;;;;;10.57;52.32;94483.38;4994063;28;20046;-61
2022/04/03 09:42:05;;;;;;;5.22;3.25;;;;;;;10.68;54.35;94470.53;5008940;28;20034;-55
2022/04/03 09:44:40;;;;;;;3.30;2.00;;;;;;;13.18;42.90;94453.97;5009160;28;20026;-61
2022/04/03 09:47:12;;;;;;;4.65;2.45;;;;;;;12.49;45.24;94458.63;4990229;28;20054;-65
2022/04/03 09:49:37;;;;;;;;;;;;;;;11.71;44.25;94447.41;4990383;28;20126;-64
2022/04/03 09:52:03;;;;;;;5.72;2.92;;;;;;;11.56;44.40;94458.94;4990404;28;20000;-58
2022/04/03 09:54:29;;;;;;;3.13;2.00;;;;;;;11.71;43.88;94446.59;4990059;28;20030;-67
2022/04/03 09:56:54;;;;;;;4.78;2.33;;;;;;;11.64;43.50;94443.69;4990528;28;20029;-63
2022/04/03 09:59:19;;;;;;;3.08;1.80;;;;;;;11.62;42.59;94457.63;4990508;28;20028;-67
2022/04/03 10:01:45;;;;;;;3.28;1.70;;;;;;;11.43;41.72;94455.59;4989940;28;20034;-65
2022/04/03 10:04:15;;;;;;;3.67;1.48;;;;;;;11.47;40.76;94455.25;4990332;28;20774;-62
2022/04/03 10:06:42;;;;;;;3.80;1.67;;;;;;;11.03;39.28;94437.03;4990143;28;20038;-68
2022/04/03 10:09:11;;;;;;;3.00;1.88;;;;;;;11.35;41.72;94494.91;4990266;28;20031;-64
2022/04/03 10:11:40;;;;;;;4.13;2.38;;;;;;;11.48;42.59;94489.63;4989784;28;20037;-63
2022/04/03 10:14:06;;;;;;;5.55;2.42;;;;;;;11.62;43.01;94466.19;4989632;28;20467;-64
2022/04/03 10:16:32;;;;;;;7.10;3.00;;;;;;;11.98;42.32;94492.75;4990061;28;20039;-65
2022/04/03 10:18:57;;;;;;;4.05;2.65;;;;;;;12.11;39.89;94466.81;4990066;28;20038;-65
2022/04/03 10:21:49;;;;;;;4.95;2.58;;;;;;;13.63;37.69;94476.25;4990246;28;20455;-66
2022/04/03 10:24:29;;;;;;;5.45;3.10;;;;;;;13.89;37.34;94451.53;4989500;28;20067;-68
2022/04/03 10:27:05;;;;;;;3.85;2.58;;;;;;;17.62;31.10;94416.34;4989233;28;20130;-64
2022/04/03 10:29:37;;;;;;;7.00;3.55;;;;;;;19.42;28.60;94464.84;4989805;28;20072;-65
2022/04/03 10:32:03;;;;;;;5.28;3.30;;;;;;;18.78;27.93;94454.16;4989754;28;20071;-68
2022/04/03 10:34:29;;;;;;;5.40;3.08;;;;;;;16.59;31.13;94474.09;4989465;28;20425;-66
2022/04/03 10:36:55;;;;;;;3.78;2.22;;;;;;;15.75;31.11;94490.59;4989319;28;20031;-65
2022/04/03 10:39:26;;;;;;;5.70;2.65;;;;;;;14.62;32.73;94451.31;4988891;28;20081;-63
2022/04/03 10:42:11;;;;;;;;;;;;;;;19.92;26.59;94462.97;4989445;28;20030;-64
2022/04/03 10:44:36;;;;;;;5.20;2.70;;;;;;;19.73;25.93;94464.16;4989178;28;19948;-66
2022/04/03 10:47:02;;;;;;;5.60;3.40;;;;;;;16.96;29.41;94474.97;4988721;28;20047;-62
2022/04/03 10:49:46;;;;;;;4.25;2.70;;;;;;;15.33;31.74;94486.59;4988712;28;20042;-63
2022/04/03 10:52:37;;;;;;;4.68;2.22;;;;;;;13.97;33.38;94475.03;4989165;28;20018;-61
2022/04/03 10:55:20;;;;;;;4.95;3.33;;;;;;;13.46;35.62;94496.56;4986224;28;20458;-61
2022/04/03 10:57:50;;;;;;;4.72;2.60;;;;;;;11.74;37.27;94382.63;4986491;28;20026;-57
2022/04/03 11:00:29;;;;;;;4.97;2.60;;;;;;;12.49;38.48;94504.34;4970324;28;20464;-62
2022/04/03 11:03:01;;;;;;;3.95;2.70;;;;;;;13.03;38.93;94508.63;4986126;28;20034;-62
2022/04/03 11:05:26;;;;;;;6.35;2.80;;;;;;;14.83;34.02;94508.28;4986555;28;20042;-63
2022/04/03 11:08:01;;;;;;;3.70;2.78;;;;;;;16.71;30.90;94503.34;4986492;28;20049;-62
2022/04/03 11:10:57;;;;;;;5.38;3.05;;;;;;;15.95;32.10;94501.78;4986333;28;20470;-61
2022/04/03 11:13:32;;;;;;;7.35;3.33;;;;;;;17.76;29.61;94501.00;4985401;28;20042;-60
2022/04/03 11:16:02;;;;;;;6.50;3.50;;;;;;;19.77;26.60;94504.69;4986256;28;20206;-59
2022/04/03 11:18:36;;;;;;;5.80;2.33;;;;;;;20.42;23.75;94479.34;4986111;28;20046;-60
2022/04/03 11:21:12;;;;;;;4.85;2.80;;;;;;;22.20;22.88;94476.53;4979553;28;20035;-59
2022/04/03 11:24:05;;;;;;;4.18;2.80;;;;;;;20.48;24.15;94473.41;4970523;28;20065;-60
2022/04/03 11:26:32;;;;;;;9.55;3.35;;;;;;;17.99;28.23;94477.88;4964306;28;20093;-61
2022/04/03 11:28:58;;;;;;;5.93;3.15;;;;;;;16.38;30.21;94482.16;4963092;28;20043;-59
2022/04/03 11:31:24;;;;;;;4.70;3.13;;;;;;;16.41;31.06;94501.88;4971429;28;20116;-62
2022/04/03 11:33:51;;;;;;;5.78;3.28;;;;;;;16.59;30.46;94500.09;5003770;28;20079;-60
2022/04/03 11:36:18;;;;;;;5.22;3.38;;;;;;;15.26;32.45;94511.44;5002635;28;20026;-60
2022/04/03 11:38:49;;;;;;;4.93;3.40;;;;;;;14.35;34.58;94519.38;5002619;28;20033;-62